sensor_id;sensor_type;location;lat;lon;timestamp;temperature;humidity
23683;DHT22;24897;53.514;10.482;2023-03-01T00:02:19;-0.40;99.90
23683;DHT22;24897;53.514;10.482;2023-03-01T00:05:04;-0.50;99.90
23683;DHT22;24897;53.514;10.482;2023-03-01T00:07:52;-0.50;99.90
23683;DHT22;24897;53.514;10.482;2023-03-01T00:10:37;-0.60;99.90
23683;DHT22;24897;53.514;10.482;2023-03-01T00:13:21;-0.70;99.90
23683;DHT22;24897;53.514;10.482;2023-03-01T00:16:08;-0.70;99.90
23683;DHT22;24897;53.514;10.482;2023-03-01T00:18:54;-0.60;99.90
23683;DHT22;24897;53.514;10.482;2023-03-01T00:21:39;-0.60;99.90
23683;DHT22;24897;53.514;10.482;2023-03-01T00:24:24;-0.60;99.90
23683;DHT22;24897;53.514;10.482;2023-03-01T00:27:08;-0.70;99.90
23683;DHT22;24897;53.514;10.482;2023-03-01T00:29:52;-0.70;99.90
23683;DHT22;24897;53.514;10.482;2023-03-01T00:32:37;-0.70;99.90
23683;DHT22;24897;53.514;10.482;2023-03-01T00:35:21;-0.70;99.90
23683;DHT22;24897;53.514;10.482;2023-03-01T00:38:06;-0.50;99.90
23683;DHT22;24897;53.514;10.482;2023-03-01T00:40:50;-0.70;99.90
23683;DHT22;24897;53.514;10.482;2023-03-01T00:43:35;-0.60;99.90
23683;DHT22;24897;53.514;10.482;2023-03-01T00:46:23;-0.70;99.90
23683;DHT22;24897;53.514;10.482;2023-03-01T00:49:08;-0.60;99.90
23683;DHT22;24897;53.514;10.482;2023-03-01T00:51:53;-0.60;99.90
23683;DHT22;24897;53.514;10.482;2023-03-01T00:54:37;-0.60;99.90
23683;DHT22;24897;53.514;10.482;2023-03-01T00:57:21;-0.60;99.90
23683;DHT22;24897;53.514;10.482;2023-03-01T01:00:06;-0.70;99.90
23683;DHT22;24897;53.514;10.482;2023-03-01T01:02:51;-0.70;99.90
23683;DHT22;24897;53.514;10.482;2023-03-01T01:05:35;-0.80;99.90
23683;DHT22;24897;53.514;10.482;2023-03-01T01:08:20;-0.80;99.90
23683;DHT22;24897;53.514;10.482;2023-03-01T01:11:05;-0.70;99.90
23683;DHT22;24897;53.514;10.482;2023-03-01T01:13:49;-0.70;99.90
23683;DHT22;24897;53.514;10.482;2023-03-01T01:16:34;-0.70;99.90
23683;DHT22;24897;53.514;10.482;2023-03-01T01:19:18;-0.70;99.90
23683;DHT22;24897;53.514;10.482;2023-03-01T01:22:02;-0.70;99.90
23683;DHT22;24897;53.514;10.482;2023-03-01T01:24:47;-0.70;99.90
23683;DHT22;24897;53.514;10.482;2023-03-01T01:27:31;-0.80;99.90
23683;DHT22;24897;53.514;10.482;2023-03-01T01:30:15;-0.80;99.90
23683;DHT22;24897;53.514;10.482;2023-03-01T01:32:59;-0.70;99.90
23683;DHT22;24897;53.514;10.482;2023-03-01T01:35:45;-0.80;99.90
23683;DHT22;24897;53.514;10.482;2023-03-01T01:38:29;-0.90;99.90
23683;DHT22;24897;53.514;10.482;2023-03-01T01:41:14;-1.00;99.90
23683;DHT22;24897;53.514;10.482;2023-03-01T01:44:12;-1.00;99.90
23683;DHT22;24897;53.514;10.482;2023-03-01T01:49:58;-1.00;99.90
23683;DHT22;24897;53.514;10.482;2023-03-01T01:52:42;-1.10;99.90
23683;DHT22;24897;53.514;10.482;2023-03-01T01:55:27;-1.10;99.90
23683;DHT22;24897;53.514;10.482;2023-03-01T01:58:15;-1.10;99.90
23683;DHT22;24897;53.514;10.482;2023-03-01T02:01:01;-1.00;99.90
23683;DHT22;24897;53.514;10.482;2023-03-01T02:03:48;-1.00;99.90
23683;DHT22;24897;53.514;10.482;2023-03-01T02:06:38;-1.00;99.90
23683;DHT22;24897;53.514;10.482;2023-03-01T02:09:23;-0.90;99.90
23683;DHT22;24897;53.514;10.482;2023-03-01T02:12:08;-0.90;99.90
23683;DHT22;24897;53.514;10.482;2023-03-01T02:14:52;-1.00;99.90
23683;DHT22;24897;53.514;10.482;2023-03-01T02:17:37;-1.00;99.90
23683;DHT22;24897;53.514;10.482;2023-03-01T02:23:22;-1.20;99.90
23683;DHT22;24897;53.514;10.482;2023-03-01T02:28:51;-1.30;99.90
23683;DHT22;24897;53.514;10.482;2023-03-01T02:31:35;-1.20;99.90
23683;DHT22;24897;53.514;10.482;2023-03-01T02:34:26;-1.20;99.90
23683;DHT22;24897;53.514;10.482;2023-03-01T02:37:14;-1.20;99.90
23683;DHT22;24897;53.514;10.482;2023-03-01T02:40:08;-1.20;99.90
23683;DHT22;24897;53.514;10.482;2023-03-01T02:42:58;-1.20;99.90
23683;DHT22;24897;53.514;10.482;2023-03-01T02:45:51;-1.10;99.90
23683;DHT22;24897;53.514;10.482;2023-03-01T02:49:02;-1.10;99.90
23683;DHT22;24897;53.514;10.482;2023-03-01T02:55:00;-1.10;99.90
23683;DHT22;24897;53.514;10.482;2023-03-01T02:57:46;-1.20;99.90
23683;DHT22;24897;53.514;10.482;2023-03-01T03:00:39;-1.20;99.90
23683;DHT22;24897;53.514;10.482;2023-03-01T03:03:24;-1.10;99.90
23683;DHT22;24897;53.514;10.482;2023-03-01T03:06:08;-1.10;99.90
23683;DHT22;24897;53.514;10.482;2023-03-01T03:08:52;-1.10;99.90
23683;DHT22;24897;53.514;10.482;2023-03-01T03:11:37;-1.20;99.90
23683;DHT22;24897;53.514;10.482;2023-03-01T03:14:23;-1.20;99.90
23683;DHT22;24897;53.514;10.482;2023-03-01T03:17:07;-1.10;99.90
23683;DHT22;24897;53.514;10.482;2023-03-01T03:19:51;-1.00;99.90
23683;DHT22;24897;53.514;10.482;2023-03-01T03:22:35;-0.90;99.90
23683;DHT22;24897;53.514;10.482;2023-03-01T03:25:20;-0.90;99.90
23683;DHT22;24897;53.514;10.482;2023-03-01T03:28:06;-0.90;99.90
23683;DHT22;24897;53.514;10.482;2023-03-01T03:31:00;-0.80;99.90
23683;DHT22;24897;53.514;10.482;2023-03-01T03:33:48;-0.70;99.90
23683;DHT22;24897;53.514;10.482;2023-03-01T03:36:32;-0.60;99.90
23683;DHT22;24897;53.514;10.482;2023-03-01T03:39:16;-0.50;99.90
23683;DHT22;24897;53.514;10.482;2023-03-01T03:42:00;-0.40;99.90
23683;DHT22;24897;53.514;10.482;2023-03-01T03:44:45;-0.30;99.90
23683;DHT22;24897;53.514;10.482;2023-03-01T03:47:29;-0.20;99.90
23683;DHT22;24897;53.514;10.482;2023-03-01T03:50:15;0.00;99.90
23683;DHT22;24897;53.514;10.482;2023-03-01T03:53:01;0.10;99.90
23683;DHT22;24897;53.514;10.482;2023-03-01T03:55:46;0.20;99.90
23683;DHT22;24897;53.514;10.482;2023-03-01T03:58:33;0.20;99.90
23683;DHT22;24897;53.514;10.482;2023-03-01T04:01:17;0.30;99.90
23683;DHT22;24897;53.514;10.482;2023-03-01T04:04:01;0.40;99.90
23683;DHT22;24897;53.514;10.482;2023-03-01T04:06:47;0.40;99.90
23683;DHT22;24897;53.514;10.482;2023-03-01T04:09:32;0.50;99.90
23683;DHT22;24897;53.514;10.482;2023-03-01T04:12:16;0.50;99.90
23683;DHT22;24897;53.514;10.482;2023-03-01T04:15:07;0.60;99.90
23683;DHT22;24897;53.514;10.482;2023-03-01T04:17:57;0.70;99.90
23683;DHT22;24897;53.514;10.482;2023-03-01T04:20:43;0.70;99.90
23683;DHT22;24897;53.514;10.482;2023-03-01T04:23:29;0.70;99.90
23683;DHT22;24897;53.514;10.482;2023-03-01T04:26:13;0.70;99.90
23683;DHT22;24897;53.514;10.482;2023-03-01T04:28:57;0.80;99.90
23683;DHT22;24897;53.514;10.482;2023-03-01T04:31:41;0.80;99.90
23683;DHT22;24897;53.514;10.482;2023-03-01T04:34:25;0.80;99.90
23683;DHT22;24897;53.514;10.482;2023-03-01T04:37:10;0.80;99.90
23683;DHT22;24897;53.514;10.482;2023-03-01T04:39:54;0.80;99.90
23683;DHT22;24897;53.514;10.482;2023-03-01T04:42:39;0.80;99.90
23683;DHT22;24897;53.514;10.482;2023-03-01T04:45:23;0.90;99.90
23683;DHT22;24897;53.514;10.482;2023-03-01T04:48:07;1.00;99.90
23683;DHT22;24897;53.514;10.482;2023-03-01T04:50:52;1.00;99.90
23683;DHT22;24897;53.514;10.482;2023-03-01T04:53:36;1.10;99.90
23683;DHT22;24897;53.514;10.482;2023-03-01T04:56:20;1.10;99.90
23683;DHT22;24897;53.514;10.482;2023-03-01T04:59:06;1.00;99.90
23683;DHT22;24897;53.514;10.482;2023-03-01T05:01:53;1.10;99.90
23683;DHT22;24897;53.514;10.482;2023-03-01T05:04:41;1.20;99.90
23683;DHT22;24897;53.514;10.482;2023-03-01T05:07:25;1.20;99.90
23683;DHT22;24897;53.514;10.482;2023-03-01T05:10:11;1.20;99.90
23683;DHT22;24897;53.514;10.482;2023-03-01T05:12:55;1.30;99.90
23683;DHT22;24897;53.514;10.482;2023-03-01T05:15:41;1.30;99.90
23683;DHT22;24897;53.514;10.482;2023-03-01T05:18:27;1.50;99.90
23683;DHT22;24897;53.514;10.482;2023-03-01T05:21:14;1.40;99.90
23683;DHT22;24897;53.514;10.482;2023-03-01T05:24:02;1.50;99.90
23683;DHT22;24897;53.514;10.482;2023-03-01T05:26:46;1.50;99.90
23683;DHT22;24897;53.514;10.482;2023-03-01T05:29:32;1.60;99.90
23683;DHT22;24897;53.514;10.482;2023-03-01T05:32:19;1.60;99.90
23683;DHT22;24897;53.514;10.482;2023-03-01T05:35:04;1.60;99.90
23683;DHT22;24897;53.514;10.482;2023-03-01T05:37:48;1.70;99.90
23683;DHT22;24897;53.514;10.482;2023-03-01T05:40:34;1.70;99.90
23683;DHT22;24897;53.514;10.482;2023-03-01T05:43:18;1.80;99.90
23683;DHT22;24897;53.514;10.482;2023-03-01T05:46:02;1.80;99.90
23683;DHT22;24897;53.514;10.482;2023-03-01T05:48:47;1.80;99.90
23683;DHT22;24897;53.514;10.482;2023-03-01T05:51:32;2.90;99.90
23683;DHT22;24897;53.514;10.482;2023-03-01T05:54:19;1.80;99.90
23683;DHT22;24897;53.514;10.482;2023-03-01T05:57:04;1.70;99.90
23683;DHT22;24897;53.514;10.482;2023-03-01T05:59:48;1.70;99.90
23683;DHT22;24897;53.514;10.482;2023-03-01T06:02:32;1.70;99.90
23683;DHT22;24897;53.514;10.482;2023-03-01T06:05:16;2.60;99.90
23683;DHT22;24897;53.514;10.482;2023-03-01T06:08:01;1.80;99.90
23683;DHT22;24897;53.514;10.482;2023-03-01T06:10:46;1.90;99.90
23683;DHT22;24897;53.514;10.482;2023-03-01T06:13:31;1.90;99.90
23683;DHT22;24897;53.514;10.482;2023-03-01T06:16:15;2.00;99.90
23683;DHT22;24897;53.514;10.482;2023-03-01T06:18:59;2.00;99.90
23683;DHT22;24897;53.514;10.482;2023-03-01T06:21:43;2.00;99.90
23683;DHT22;24897;53.514;10.482;2023-03-01T06:24:27;2.00;99.90
23683;DHT22;24897;53.514;10.482;2023-03-01T06:27:13;2.00;99.90
23683;DHT22;24897;53.514;10.482;2023-03-01T06:29:57;2.10;99.90
23683;DHT22;24897;53.514;10.482;2023-03-01T06:32:41;3.20;99.90
23683;DHT22;24897;53.514;10.482;2023-03-01T06:35:29;2.20;99.90
23683;DHT22;24897;53.514;10.482;2023-03-01T06:38:14;2.20;99.90
23683;DHT22;24897;53.514;10.482;2023-03-01T06:41:02;2.30;99.90
23683;DHT22;24897;53.514;10.482;2023-03-01T06:43:47;2.30;99.90
23683;DHT22;24897;53.514;10.482;2023-03-01T06:46:31;2.30;99.90
23683;DHT22;24897;53.514;10.482;2023-03-01T06:49:15;2.20;99.90
23683;DHT22;24897;53.514;10.482;2023-03-01T06:52:01;2.30;99.90
23683;DHT22;24897;53.514;10.482;2023-03-01T06:54:45;2.40;99.90
23683;DHT22;24897;53.514;10.482;2023-03-01T06:57:29;2.40;99.90
23683;DHT22;24897;53.514;10.482;2023-03-01T07:00:14;2.40;99.90
23683;DHT22;24897;53.514;10.482;2023-03-01T07:03:00;2.50;99.90
23683;DHT22;24897;53.514;10.482;2023-03-01T07:05:45;2.50;99.90
23683;DHT22;24897;53.514;10.482;2023-03-01T07:08:32;2.50;99.90
23683;DHT22;24897;53.514;10.482;2023-03-01T07:11:16;2.50;99.90
23683;DHT22;24897;53.514;10.482;2023-03-01T07:14:00;2.60;99.90
23683;DHT22;24897;53.514;10.482;2023-03-01T07:16:45;2.70;99.90
23683;DHT22;24897;53.514;10.482;2023-03-01T07:19:29;2.70;99.90
23683;DHT22;24897;53.514;10.482;2023-03-01T07:22:13;2.90;99.90
23683;DHT22;24897;53.514;10.482;2023-03-01T07:24:57;3.00;99.90
23683;DHT22;24897;53.514;10.482;2023-03-01T07:27:41;3.20;99.90
23683;DHT22;24897;53.514;10.482;2023-03-01T07:30:25;3.30;99.90
23683;DHT22;24897;53.514;10.482;2023-03-01T07:33:12;3.30;99.90
23683;DHT22;24897;53.514;10.482;2023-03-01T07:35:58;3.40;99.90
23683;DHT22;24897;53.514;10.482;2023-03-01T07:38:42;3.60;99.90
23683;DHT22;24897;53.514;10.482;2023-03-01T07:41:26;3.70;99.90
23683;DHT22;24897;53.514;10.482;2023-03-01T07:44:10;3.80;99.90
23683;DHT22;24897;53.514;10.482;2023-03-01T07:46:55;4.50;99.90
23683;DHT22;24897;53.514;10.482;2023-03-01T07:49:40;4.00;99.90
23683;DHT22;24897;53.514;10.482;2023-03-01T07:52:25;4.10;99.90
23683;DHT22;24897;53.514;10.482;2023-03-01T07:55:09;4.20;99.90
23683;DHT22;24897;53.514;10.482;2023-03-01T07:57:53;4.30;99.90
23683;DHT22;24897;53.514;10.482;2023-03-01T08:00:37;4.20;99.90
23683;DHT22;24897;53.514;10.482;2023-03-01T08:03:21;4.20;99.90
23683;DHT22;24897;53.514;10.482;2023-03-01T08:06:07;4.30;99.90
23683;DHT22;24897;53.514;10.482;2023-03-01T08:08:52;4.60;99.90
23683;DHT22;24897;53.514;10.482;2023-03-01T08:11:36;4.60;99.90
23683;DHT22;24897;53.514;10.482;2023-03-01T08:14:20;4.70;99.90
23683;DHT22;24897;53.514;10.482;2023-03-01T08:17:04;4.80;99.90
23683;DHT22;24897;53.514;10.482;2023-03-01T08:19:48;4.70;99.90
23683;DHT22;24897;53.514;10.482;2023-03-01T08:22:32;4.80;99.90
23683;DHT22;24897;53.514;10.482;2023-03-01T08:25:16;4.70;99.90
23683;DHT22;24897;53.514;10.482;2023-03-01T08:28:00;4.70;99.90
23683;DHT22;24897;53.514;10.482;2023-03-01T08:30:44;4.60;99.90
23683;DHT22;24897;53.514;10.482;2023-03-01T08:33:28;4.60;99.90
23683;DHT22;24897;53.514;10.482;2023-03-01T08:36:13;4.70;99.90
23683;DHT22;24897;53.514;10.482;2023-03-01T08:38:57;4.60;99.90
23683;DHT22;24897;53.514;10.482;2023-03-01T08:41:42;4.70;99.90
23683;DHT22;24897;53.514;10.482;2023-03-01T08:44:27;4.90;99.90
23683;DHT22;24897;53.514;10.482;2023-03-01T08:47:11;5.40;99.90
23683;DHT22;24897;53.514;10.482;2023-03-01T08:49:55;5.40;99.90
23683;DHT22;24897;53.514;10.482;2023-03-01T08:52:39;5.60;99.90
23683;DHT22;24897;53.514;10.482;2023-03-01T08:55:23;6.00;99.90
23683;DHT22;24897;53.514;10.482;2023-03-01T08:58:07;6.00;99.90
23683;DHT22;24897;53.514;10.482;2023-03-01T09:00:51;6.10;99.90
23683;DHT22;24897;53.514;10.482;2023-03-01T09:03:36;6.40;99.90
23683;DHT22;24897;53.514;10.482;2023-03-01T09:06:21;6.70;99.90
23683;DHT22;24897;53.514;10.482;2023-03-01T09:09:06;6.70;99.90
23683;DHT22;24897;53.514;10.482;2023-03-01T09:11:51;6.80;99.90
23683;DHT22;24897;53.514;10.482;2023-03-01T09:14:36;7.60;99.90
23683;DHT22;24897;53.514;10.482;2023-03-01T09:17:22;7.50;99.90
23683;DHT22;24897;53.514;10.482;2023-03-01T09:20:07;8.10;99.90
23683;DHT22;24897;53.514;10.482;2023-03-01T09:22:51;8.10;99.90
23683;DHT22;24897;53.514;10.482;2023-03-01T09:25:35;8.50;99.90
23683;DHT22;24897;53.514;10.482;2023-03-01T09:28:19;8.60;99.90
23683;DHT22;24897;53.514;10.482;2023-03-01T09:31:07;8.50;99.90
23683;DHT22;24897;53.514;10.482;2023-03-01T09:33:52;8.60;99.90
23683;DHT22;24897;53.514;10.482;2023-03-01T09:36:37;9.10;99.90
23683;DHT22;24897;53.514;10.482;2023-03-01T09:39:22;9.40;99.90
23683;DHT22;24897;53.514;10.482;2023-03-01T09:42:06;9.50;99.90
23683;DHT22;24897;53.514;10.482;2023-03-01T09:45:27;9.60;99.90
23683;DHT22;24897;53.514;10.482;2023-03-01T09:48:19;9.80;99.90
23683;DHT22;24897;53.514;10.482;2023-03-01T09:51:14;9.90;99.90
23683;DHT22;24897;53.514;10.482;2023-03-01T09:54:04;9.90;99.90
23683;DHT22;24897;53.514;10.482;2023-03-01T10:00:13;10.00;99.90
23683;DHT22;24897;53.514;10.482;2023-03-01T10:06:30;10.80;99.90
23683;DHT22;24897;53.514;10.482;2023-03-01T10:09:16;11.50;99.90
23683;DHT22;24897;53.514;10.482;2023-03-01T10:12:02;11.60;99.90
23683;DHT22;24897;53.514;10.482;2023-03-01T10:15:02;11.90;99.90
23683;DHT22;24897;53.514;10.482;2023-03-01T10:17:52;12.30;99.90
23683;DHT22;24897;53.514;10.482;2023-03-01T10:23:42;11.50;99.90
23683;DHT22;24897;53.514;10.482;2023-03-01T10:26:34;12.90;99.90
23683;DHT22;24897;53.514;10.482;2023-03-01T10:29:39;13.10;99.90
23683;DHT22;24897;53.514;10.482;2023-03-01T10:32:28;13.30;99.90
23683;DHT22;24897;53.514;10.482;2023-03-01T10:35:26;13.20;99.90
23683;DHT22;24897;53.514;10.482;2023-03-01T10:38:12;13.10;99.90
23683;DHT22;24897;53.514;10.482;2023-03-01T10:41:05;12.70;99.90
23683;DHT22;24897;53.514;10.482;2023-03-01T10:43:56;12.30;99.90
23683;DHT22;24897;53.514;10.482;2023-03-01T10:46:40;12.10;99.90
23683;DHT22;24897;53.514;10.482;2023-03-01T10:49:25;11.80;99.90
23683;DHT22;24897;53.514;10.482;2023-03-01T10:52:40;11.60;99.90
23683;DHT22;24897;53.514;10.482;2023-03-01T10:55:38;11.40;99.90
23683;DHT22;24897;53.514;10.482;2023-03-01T10:58:22;11.40;99.90
23683;DHT22;24897;53.514;10.482;2023-03-01T11:01:28;11.60;99.90
23683;DHT22;24897;53.514;10.482;2023-03-01T11:04:13;12.00;99.90
23683;DHT22;24897;53.514;10.482;2023-03-01T11:06:59;12.60;99.90
23683;DHT22;24897;53.514;10.482;2023-03-01T11:09:44;12.50;99.90
23683;DHT22;24897;53.514;10.482;2023-03-01T11:12:28;13.10;99.90
23683;DHT22;24897;53.514;10.482;2023-03-01T11:15:28;13.50;99.90
23683;DHT22;24897;53.514;10.482;2023-03-01T11:18:20;14.00;99.90
23683;DHT22;24897;53.514;10.482;2023-03-01T11:21:07;14.40;99.90
23683;DHT22;24897;53.514;10.482;2023-03-01T11:23:53;14.90;99.90
23683;DHT22;24897;53.514;10.482;2023-03-01T11:26:41;15.20;99.90
23683;DHT22;24897;53.514;10.482;2023-03-01T11:29:51;15.40;99.90
23683;DHT22;24897;53.514;10.482;2023-03-01T11:32:43;15.10;99.90
23683;DHT22;24897;53.514;10.482;2023-03-01T11:35:29;15.20;99.90
23683;DHT22;24897;53.514;10.482;2023-03-01T11:38:22;14.50;99.90
23683;DHT22;24897;53.514;10.482;2023-03-01T11:41:14;14.30;99.90
23683;DHT22;24897;53.514;10.482;2023-03-01T11:44:00;13.80;99.90
23683;DHT22;24897;53.514;10.482;2023-03-01T12:00:06;15.40;99.90
23683;DHT22;24897;53.514;10.482;2023-03-01T12:06:25;14.90;99.90
23683;DHT22;24897;53.514;10.482;2023-03-01T12:18:32;14.70;99.90
23683;DHT22;24897;53.514;10.482;2023-03-01T12:37:25;14.30;99.90
23683;DHT22;24897;53.514;10.482;2023-03-01T12:49:28;15.20;99.90
23683;DHT22;24897;53.514;10.482;2023-03-01T12:55:31;15.30;99.90
23683;DHT22;24897;53.514;10.482;2023-03-01T12:58:36;15.30;99.90
23683;DHT22;24897;53.514;10.482;2023-03-01T13:04:16;15.30;99.90
23683;DHT22;24897;53.514;10.482;2023-03-01T13:10:24;15.10;99.90
23683;DHT22;24897;53.514;10.482;2023-03-01T13:13:25;14.90;99.90
23683;DHT22;24897;53.514;10.482;2023-03-01T13:16:40;15.40;99.90
23683;DHT22;24897;53.514;10.482;2023-03-01T13:19:28;15.80;99.90
23683;DHT22;24897;53.514;10.482;2023-03-01T13:22:29;16.10;99.90
23683;DHT22;24897;53.514;10.482;2023-03-01T13:25:18;15.90;99.90
23683;DHT22;24897;53.514;10.482;2023-03-01T13:34:40;16.00;99.90
23683;DHT22;24897;53.514;10.482;2023-03-01T13:37:28;16.20;99.90
23683;DHT22;24897;53.514;10.482;2023-03-01T13:43:42;16.30;99.90
23683;DHT22;24897;53.514;10.482;2023-03-01T13:46:27;16.70;99.90
23683;DHT22;24897;53.514;10.482;2023-03-01T13:49:15;16.90;99.90
23683;DHT22;24897;53.514;10.482;2023-03-01T13:52:00;16.80;99.90
23683;DHT22;24897;53.514;10.482;2023-03-01T13:54:46;16.90;99.90
23683;DHT22;24897;53.514;10.482;2023-03-01T13:57:34;16.80;99.90
23683;DHT22;24897;53.514;10.482;2023-03-01T14:00:28;16.60;99.90
23683;DHT22;24897;53.514;10.482;2023-03-01T14:03:16;16.30;99.90
23683;DHT22;24897;53.514;10.482;2023-03-01T14:06:05;16.10;99.90
23683;DHT22;24897;53.514;10.482;2023-03-01T14:17:43;15.30;99.90
23683;DHT22;24897;53.514;10.482;2023-03-01T14:20:32;15.40;99.90
23683;DHT22;24897;53.514;10.482;2023-03-01T14:23:23;15.20;99.90
23683;DHT22;24897;53.514;10.482;2023-03-01T14:26:08;15.00;99.90
23683;DHT22;24897;53.514;10.482;2023-03-01T14:28:53;14.90;99.90
23683;DHT22;24897;53.514;10.482;2023-03-01T14:31:39;14.40;99.90
23683;DHT22;24897;53.514;10.482;2023-03-01T14:34:24;13.90;99.90
23683;DHT22;24897;53.514;10.482;2023-03-01T14:40:24;13.10;99.90
23683;DHT22;24897;53.514;10.482;2023-03-01T14:43:11;12.70;99.90
23683;DHT22;24897;53.514;10.482;2023-03-01T14:45:56;12.30;99.90
23683;DHT22;24897;53.514;10.482;2023-03-01T14:48:41;11.90;99.90
23683;DHT22;24897;53.514;10.482;2023-03-01T14:51:25;11.70;99.90
23683;DHT22;24897;53.514;10.482;2023-03-01T14:57:05;11.40;99.90
23683;DHT22;24897;53.514;10.482;2023-03-01T14:59:55;11.40;99.90
23683;DHT22;24897;53.514;10.482;2023-03-01T15:02:41;11.20;99.90
23683;DHT22;24897;53.514;10.482;2023-03-01T15:05:31;11.20;99.90
23683;DHT22;24897;53.514;10.482;2023-03-01T15:08:23;10.90;99.90
23683;DHT22;24897;53.514;10.482;2023-03-01T15:11:41;10.80;99.90
23683;DHT22;24897;53.514;10.482;2023-03-01T15:14:40;10.70;99.90
23683;DHT22;24897;53.514;10.482;2023-03-01T15:17:38;10.70;99.90
23683;DHT22;24897;53.514;10.482;2023-03-01T15:20:24;10.50;99.90
23683;DHT22;24897;53.514;10.482;2023-03-01T15:23:19;10.50;99.90
23683;DHT22;24897;53.514;10.482;2023-03-01T15:26:04;10.40;99.90
23683;DHT22;24897;53.514;10.482;2023-03-01T15:28:56;10.40;99.90
23683;DHT22;24897;53.514;10.482;2023-03-01T15:31:42;10.40;99.90
23683;DHT22;24897;53.514;10.482;2023-03-01T15:34:35;10.30;99.90
23683;DHT22;24897;53.514;10.482;2023-03-01T15:37:53;10.30;99.90
23683;DHT22;24897;53.514;10.482;2023-03-01T15:40:49;10.30;99.90
23683;DHT22;24897;53.514;10.482;2023-03-01T15:43:38;10.20;99.90
23683;DHT22;24897;53.514;10.482;2023-03-01T15:49:41;10.20;99.90
23683;DHT22;24897;53.514;10.482;2023-03-01T15:52:35;10.00;99.90
23683;DHT22;24897;53.514;10.482;2023-03-01T15:55:28;10.00;99.90
23683;DHT22;24897;53.514;10.482;2023-03-01T15:58:15;9.80;99.90
23683;DHT22;24897;53.514;10.482;2023-03-01T16:01:00;9.70;99.90
23683;DHT22;24897;53.514;10.482;2023-03-01T16:03:44;9.60;99.90
23683;DHT22;24897;53.514;10.482;2023-03-01T16:06:29;9.60;99.90
23683;DHT22;24897;53.514;10.482;2023-03-01T16:09:13;9.40;99.90
23683;DHT22;24897;53.514;10.482;2023-03-01T16:11:57;9.40;99.90
23683;DHT22;24897;53.514;10.482;2023-03-01T16:14:42;9.40;99.90
23683;DHT22;24897;53.514;10.482;2023-03-01T16:17:26;9.20;99.90
23683;DHT22;24897;53.514;10.482;2023-03-01T16:20:10;9.10;99.90
23683;DHT22;24897;53.514;10.482;2023-03-01T16:22:57;9.00;99.90
23683;DHT22;24897;53.514;10.482;2023-03-01T16:25:42;9.00;99.90
23683;DHT22;24897;53.514;10.482;2023-03-01T16:28:26;8.70;99.90
23683;DHT22;24897;53.514;10.482;2023-03-01T16:31:11;8.60;99.90
23683;DHT22;24897;53.514;10.482;2023-03-01T16:33:57;8.40;99.90
23683;DHT22;24897;53.514;10.482;2023-03-01T16:36:42;8.30;99.90
23683;DHT22;24897;53.514;10.482;2023-03-01T16:39:27;8.10;99.90
23683;DHT22;24897;53.514;10.482;2023-03-01T16:42:11;7.90;99.90
23683;DHT22;24897;53.514;10.482;2023-03-01T16:44:55;7.70;99.90
23683;DHT22;24897;53.514;10.482;2023-03-01T16:47:40;7.60;99.90
23683;DHT22;24897;53.514;10.482;2023-03-01T16:50:24;7.50;99.90
23683;DHT22;24897;53.514;10.482;2023-03-01T16:53:09;7.40;99.90
23683;DHT22;24897;53.514;10.482;2023-03-01T16:55:55;7.30;99.90
23683;DHT22;24897;53.514;10.482;2023-03-01T16:58:40;7.20;99.90
23683;DHT22;24897;53.514;10.482;2023-03-01T17:01:24;7.10;99.90
23683;DHT22;24897;53.514;10.482;2023-03-01T17:04:13;7.00;99.90
23683;DHT22;24897;53.514;10.482;2023-03-01T17:06:57;7.30;99.90
23683;DHT22;24897;53.514;10.482;2023-03-01T17:09:41;6.80;99.90
23683;DHT22;24897;53.514;10.482;2023-03-01T17:12:26;6.70;99.90
23683;DHT22;24897;53.514;10.482;2023-03-01T17:15:11;6.60;99.90
23683;DHT22;24897;53.514;10.482;2023-03-01T17:17:55;6.50;99.90
23683;DHT22;24897;53.514;10.482;2023-03-01T17:20:40;6.40;99.90
23683;DHT22;24897;53.514;10.482;2023-03-01T17:23:24;6.20;99.90
23683;DHT22;24897;53.514;10.482;2023-03-01T17:26:09;6.10;99.90
23683;DHT22;24897;53.514;10.482;2023-03-01T17:28:54;6.00;99.90
23683;DHT22;24897;53.514;10.482;2023-03-01T17:31:38;5.90;99.90
23683;DHT22;24897;53.514;10.482;2023-03-01T17:34:24;5.80;99.90
23683;DHT22;24897;53.514;10.482;2023-03-01T17:37:08;5.80;99.90
23683;DHT22;24897;53.514;10.482;2023-03-01T17:39:52;5.70;99.90
23683;DHT22;24897;53.514;10.482;2023-03-01T17:42:36;5.60;99.90
23683;DHT22;24897;53.514;10.482;2023-03-01T17:45:20;5.70;99.90
23683;DHT22;24897;53.514;10.482;2023-03-01T17:48:06;5.50;99.90
23683;DHT22;24897;53.514;10.482;2023-03-01T17:50:50;5.40;99.90
23683;DHT22;24897;53.514;10.482;2023-03-01T17:53:34;5.40;99.90
23683;DHT22;24897;53.514;10.482;2023-03-01T17:56:19;5.30;99.90
23683;DHT22;24897;53.514;10.482;2023-03-01T17:59:04;5.20;99.90
23683;DHT22;24897;53.514;10.482;2023-03-01T18:01:48;5.10;99.90
23683;DHT22;24897;53.514;10.482;2023-03-01T18:04:33;5.00;99.90
23683;DHT22;24897;53.514;10.482;2023-03-01T18:07:17;4.80;99.90
23683;DHT22;24897;53.514;10.482;2023-03-01T18:10:01;4.60;99.90
23683;DHT22;24897;53.514;10.482;2023-03-01T18:12:45;4.50;99.90
23683;DHT22;24897;53.514;10.482;2023-03-01T18:15:30;4.50;99.90
23683;DHT22;24897;53.514;10.482;2023-03-01T18:18:15;4.50;99.90
23683;DHT22;24897;53.514;10.482;2023-03-01T18:21:00;4.50;99.90
23683;DHT22;24897;53.514;10.482;2023-03-01T18:23:44;4.40;99.90
23683;DHT22;24897;53.514;10.482;2023-03-01T18:26:29;4.50;99.90
23683;DHT22;24897;53.514;10.482;2023-03-01T18:29:13;4.30;99.90
23683;DHT22;24897;53.514;10.482;2023-03-01T18:31:57;4.20;99.90
23683;DHT22;24897;53.514;10.482;2023-03-01T18:34:41;4.20;99.90
23683;DHT22;24897;53.514;10.482;2023-03-01T18:37:25;4.30;99.90
23683;DHT22;24897;53.514;10.482;2023-03-01T18:40:10;4.30;99.90
23683;DHT22;24897;53.514;10.482;2023-03-01T18:42:56;4.40;99.90
23683;DHT22;24897;53.514;10.482;2023-03-01T18:45:40;4.40;99.90
23683;DHT22;24897;53.514;10.482;2023-03-01T18:48:28;4.50;99.90
23683;DHT22;24897;53.514;10.482;2023-03-01T18:51:18;4.50;99.90
23683;DHT22;24897;53.514;10.482;2023-03-01T18:54:02;4.50;99.90
23683;DHT22;24897;53.514;10.482;2023-03-01T18:56:46;4.40;99.90
23683;DHT22;24897;53.514;10.482;2023-03-01T18:59:31;5.00;99.90
23683;DHT22;24897;53.514;10.482;2023-03-01T19:02:18;4.40;99.90
23683;DHT22;24897;53.514;10.482;2023-03-01T19:05:02;4.40;99.90
23683;DHT22;24897;53.514;10.482;2023-03-01T19:07:47;4.40;99.90
23683;DHT22;24897;53.514;10.482;2023-03-01T19:10:31;4.30;99.90
23683;DHT22;24897;53.514;10.482;2023-03-01T19:13:16;4.30;99.90
23683;DHT22;24897;53.514;10.482;2023-03-01T19:18:55;4.20;99.90
23683;DHT22;24897;53.514;10.482;2023-03-01T19:21:40;4.10;99.90